sensor_id;sensor_type;location;lat;lon;timestamp;temperature;humidity
46898;DHT22;32646;50.958;6.258;2023-02-28T00:00:24;0.00;99.90
46898;DHT22;32646;50.958;6.258;2023-02-28T00:02:51;-0.10;99.90
46898;DHT22;32646;50.958;6.258;2023-02-28T00:05:19;-0.10;99.90
46898;DHT22;32646;50.958;6.258;2023-02-28T00:07:47;-0.30;99.90
46898;DHT22;32646;50.958;6.258;2023-02-28T00:10:17;-0.30;99.90
46898;DHT22;32646;50.958;6.258;2023-02-28T00:12:44;-0.50;99.90
46898;DHT22;32646;50.958;6.258;2023-02-28T00:15:11;-0.70;99.90
46898;DHT22;32646;50.958;6.258;2023-02-28T00:17:37;-0.60;99.90
46898;DHT22;32646;50.958;6.258;2023-02-28T00:20:05;-0.40;99.90
46898;DHT22;32646;50.958;6.258;2023-02-28T00:22:32;-0.40;99.90
46898;DHT22;32646;50.958;6.258;2023-02-28T00:24:59;-0.40;99.90
46898;DHT22;32646;50.958;6.258;2023-02-28T00:27:26;-0.20;99.90
46898;DHT22;32646;50.958;6.258;2023-02-28T00:29:52;-0.40;99.90
46898;DHT22;32646;50.958;6.258;2023-02-28T00:32:19;-0.50;99.90
46898;DHT22;32646;50.958;6.258;2023-02-28T00:34:45;-0.60;99.90
46898;DHT22;32646;50.958;6.258;2023-02-28T00:37:12;-0.60;99.90
46898;DHT22;32646;50.958;6.258;2023-02-28T00:39:39;-0.50;99.90
46898;DHT22;32646;50.958;6.258;2023-02-28T00:42:06;-0.40;99.90
46898;DHT22;32646;50.958;6.258;2023-02-28T00:44:33;-0.40;99.90
46898;DHT22;32646;50.958;6.258;2023-02-28T00:47:00;-0.30;99.90
46898;DHT22;32646;50.958;6.258;2023-02-28T00:49:27;-0.30;99.90
46898;DHT22;32646;50.958;6.258;2023-02-28T00:51:56;-0.30;99.90
46898;DHT22;32646;50.958;6.258;2023-02-28T00:54:23;-0.30;99.90
46898;DHT22;32646;50.958;6.258;2023-02-28T00:56:49;-0.30;99.90
46898;DHT22;32646;50.958;6.258;2023-02-28T00:59:17;-0.20;99.90
46898;DHT22;32646;50.958;6.258;2023-02-28T01:01:45;-0.30;99.90
46898;DHT22;32646;50.958;6.258;2023-02-28T01:04:13;-0.30;99.90
46898;DHT22;32646;50.958;6.258;2023-02-28T01:06:40;-0.30;99.90
46898;DHT22;32646;50.958;6.258;2023-02-28T01:09:07;-0.30;99.90
46898;DHT22;32646;50.958;6.258;2023-02-28T01:11:34;-0.40;99.90
46898;DHT22;32646;50.958;6.258;2023-02-28T01:14:02;-0.40;99.90
46898;DHT22;32646;50.958;6.258;2023-02-28T01:16:28;-0.50;99.90
46898;DHT22;32646;50.958;6.258;2023-02-28T01:18:55;-0.60;99.90
46898;DHT22;32646;50.958;6.258;2023-02-28T01:21:22;-0.60;99.90
46898;DHT22;32646;50.958;6.258;2023-02-28T01:23:49;-0.70;99.90
46898;DHT22;32646;50.958;6.258;2023-02-28T01:26:21;-0.70;99.90
46898;DHT22;32646;50.958;6.258;2023-02-28T01:28:49;-0.60;99.90
46898;DHT22;32646;50.958;6.258;2023-02-28T01:31:16;-0.60;99.90
46898;DHT22;32646;50.958;6.258;2023-02-28T01:33:43;-0.80;99.90
46898;DHT22;32646;50.958;6.258;2023-02-28T01:36:14;-0.70;99.90
46898;DHT22;32646;50.958;6.258;2023-02-28T01:38:42;-0.90;99.90
46898;DHT22;32646;50.958;6.258;2023-02-28T01:41:16;-1.10;99.90
46898;DHT22;32646;50.958;6.258;2023-02-28T01:46:11;-1.10;99.90
46898;DHT22;32646;50.958;6.258;2023-02-28T01:48:46;-1.10;99.90
46898;DHT22;32646;50.958;6.258;2023-02-28T01:51:21;-1.00;99.90
46898;DHT22;32646;50.958;6.258;2023-02-28T01:53:59;-0.90;99.90
46898;DHT22;32646;50.958;6.258;2023-02-28T01:56:30;-0.80;99.90
46898;DHT22;32646;50.958;6.258;2023-02-28T01:58:58;-0.80;99.90
46898;DHT22;32646;50.958;6.258;2023-02-28T02:01:27;-0.90;99.90
46898;DHT22;32646;50.958;6.258;2023-02-28T02:03:58;-0.90;99.90
46898;DHT22;32646;50.958;6.258;2023-02-28T02:06:29;-0.80;99.90
46898;DHT22;32646;50.958;6.258;2023-02-28T02:08:56;-0.80;99.90
46898;DHT22;32646;50.958;6.258;2023-02-28T02:11:24;-0.90;99.90
46898;DHT22;32646;50.958;6.258;2023-02-28T02:17:05;-1.20;99.90
46898;DHT22;32646;50.958;6.258;2023-02-28T02:20:22;-1.30;99.90
46898;DHT22;32646;50.958;6.258;2023-02-28T02:25:41;-1.30;99.90
46898;DHT22;32646;50.958;6.258;2023-02-28T02:28:41;-1.30;99.90
46898;DHT22;32646;50.958;6.258;2023-02-28T02:34:29;-1.40;99.90
46898;DHT22;32646;50.958;6.258;2023-02-28T02:37:00;-1.40;99.90
46898;DHT22;32646;50.958;6.258;2023-02-28T02:39:48;-1.40;99.90
46898;DHT22;32646;50.958;6.258;2023-02-28T02:42:28;-1.30;99.90
46898;DHT22;32646;50.958;6.258;2023-02-28T02:45:03;-1.20;99.90
46898;DHT22;32646;50.958;6.258;2023-02-28T02:47:33;-1.10;99.90
46898;DHT22;32646;50.958;6.258;2023-02-28T02:50:04;-0.90;99.90
46898;DHT22;32646;50.958;6.258;2023-02-28T02:52:43;-0.80;99.90
46898;DHT22;32646;50.958;6.258;2023-02-28T02:55:12;-0.80;99.90
46898;DHT22;32646;50.958;6.258;2023-02-28T02:57:50;-0.70;99.90
46898;DHT22;32646;50.958;6.258;2023-02-28T03:00:20;-0.50;99.90
46898;DHT22;32646;50.958;6.258;2023-02-28T03:02:49;-0.50;99.90
46898;DHT22;32646;50.958;6.258;2023-02-28T03:05:28;-0.40;99.90
46898;DHT22;32646;50.958;6.258;2023-02-28T03:07:57;-0.40;99.90
46898;DHT22;32646;50.958;6.258;2023-02-28T03:10:39;-0.50;99.90
46898;DHT22;32646;50.958;6.258;2023-02-28T03:19:01;-0.90;99.90
46898;DHT22;32646;50.958;6.258;2023-02-28T03:21:42;-1.00;99.90
46898;DHT22;32646;50.958;6.258;2023-02-28T03:24:19;-1.10;99.90
46898;DHT22;32646;50.958;6.258;2023-02-28T03:26:57;-1.20;99.90
46898;DHT22;32646;50.958;6.258;2023-02-28T03:29:32;-1.30;99.90
46898;DHT22;32646;50.958;6.258;2023-02-28T03:34:46;-1.30;99.90
46898;DHT22;32646;50.958;6.258;2023-02-28T03:37:19;-1.40;99.90
46898;DHT22;32646;50.958;6.258;2023-02-28T03:39:57;-1.50;99.90
46898;DHT22;32646;50.958;6.258;2023-02-28T03:42:28;-1.60;99.90
46898;DHT22;32646;50.958;6.258;2023-02-28T03:45:01;-1.60;99.90
46898;DHT22;32646;50.958;6.258;2023-02-28T03:47:37;-1.70;99.90
46898;DHT22;32646;50.958;6.258;2023-02-28T03:50:08;-1.90;99.90
46898;DHT22;32646;50.958;6.258;2023-02-28T03:52:45;-2.00;99.90
46898;DHT22;32646;50.958;6.258;2023-02-28T03:55:14;-2.10;99.90
46898;DHT22;32646;50.958;6.258;2023-02-28T03:57:56;-2.20;99.90
46898;DHT22;32646;50.958;6.258;2023-02-28T04:00:30;-2.30;99.90
46898;DHT22;32646;50.958;6.258;2023-02-28T04:02:57;-2.30;99.90
46898;DHT22;32646;50.958;6.258;2023-02-28T04:05:25;-2.40;99.90
46898;DHT22;32646;50.958;6.258;2023-02-28T04:07:52;-2.50;99.90
46898;DHT22;32646;50.958;6.258;2023-02-28T04:10:18;-2.50;99.90
46898;DHT22;32646;50.958;6.258;2023-02-28T04:12:45;-2.60;99.90
46898;DHT22;32646;50.958;6.258;2023-02-28T04:15:11;-2.60;99.90
46898;DHT22;32646;50.958;6.258;2023-02-28T04:17:38;-2.70;99.90
46898;DHT22;32646;50.958;6.258;2023-02-28T04:20:05;-2.80;99.90
46898;DHT22;32646;50.958;6.258;2023-02-28T04:22:31;-2.80;99.90
46898;DHT22;32646;50.958;6.258;2023-02-28T04:24:58;-2.80;99.90
46898;DHT22;32646;50.958;6.258;2023-02-28T04:27:24;-2.70;99.90
46898;DHT22;32646;50.958;6.258;2023-02-28T04:29:51;-2.70;99.90
46898;DHT22;32646;50.958;6.258;2023-02-28T04:32:17;-2.70;99.90
46898;DHT22;32646;50.958;6.258;2023-02-28T04:34:44;-2.60;99.90
46898;DHT22;32646;50.958;6.258;2023-02-28T04:37:11;-2.60;99.90
46898;DHT22;32646;50.958;6.258;2023-02-28T04:39:40;-2.60;99.90
46898;DHT22;32646;50.958;6.258;2023-02-28T04:42:09;-2.60;99.90
46898;DHT22;32646;50.958;6.258;2023-02-28T04:44:35;-2.60;99.90
46898;DHT22;32646;50.958;6.258;2023-02-28T04:47:02;-2.50;99.90
46898;DHT22;32646;50.958;6.258;2023-02-28T04:49:28;-2.50;99.90
46898;DHT22;32646;50.958;6.258;2023-02-28T04:51:55;-2.40;99.90
46898;DHT22;32646;50.958;6.258;2023-02-28T04:54:21;-2.40;99.90
46898;DHT22;32646;50.958;6.258;2023-02-28T04:56:48;-2.50;99.90
46898;DHT22;32646;50.958;6.258;2023-02-28T04:59:14;-2.50;99.90
46898;DHT22;32646;50.958;6.258;2023-02-28T05:01:46;-2.40;99.90
46898;DHT22;32646;50.958;6.258;2023-02-28T05:04:13;-2.40;99.90
46898;DHT22;32646;50.958;6.258;2023-02-28T05:06:39;-2.40;99.90
46898;DHT22;32646;50.958;6.258;2023-02-28T05:09:06;-2.40;99.90
46898;DHT22;32646;50.958;6.258;2023-02-28T05:11:33;-2.40;99.90
46898;DHT22;32646;50.958;6.258;2023-02-28T05:14:04;-2.50;99.90
46898;DHT22;32646;50.958;6.258;2023-02-28T05:16:32;-2.50;99.90
46898;DHT22;32646;50.958;6.258;2023-02-28T05:18:58;-2.50;99.90
46898;DHT22;32646;50.958;6.258;2023-02-28T05:21:36;-2.50;99.90
46898;DHT22;32646;50.958;6.258;2023-02-28T05:24:14;-2.40;99.90
46898;DHT22;32646;50.958;6.258;2023-02-28T05:26:42;-2.40;99.90
46898;DHT22;32646;50.958;6.258;2023-02-28T05:29:09;-2.50;99.90
46898;DHT22;32646;50.958;6.258;2023-02-28T05:31:36;-2.50;99.90
46898;DHT22;32646;50.958;6.258;2023-02-28T05:34:03;-2.50;99.90
46898;DHT22;32646;50.958;6.258;2023-02-28T05:36:30;-2.50;99.90
46898;DHT22;32646;50.958;6.258;2023-02-28T05:38:56;-2.60;99.90
46898;DHT22;32646;50.958;6.258;2023-02-28T05:41:23;-2.70;99.90
46898;DHT22;32646;50.958;6.258;2023-02-28T05:43:49;-2.70;99.90
46898;DHT22;32646;50.958;6.258;2023-02-28T05:46:16;-2.60;99.90
46898;DHT22;32646;50.958;6.258;2023-02-28T05:48:46;-2.40;99.90
46898;DHT22;32646;50.958;6.258;2023-02-28T05:51:13;-2.20;99.90
46898;DHT22;32646;50.958;6.258;2023-02-28T05:53:40;-2.40;99.90
46898;DHT22;32646;50.958;6.258;2023-02-28T05:56:06;-2.40;99.90
46898;DHT22;32646;50.958;6.258;2023-02-28T05:58:33;-2.50;99.90
46898;DHT22;32646;50.958;6.258;2023-02-28T06:01:00;-2.50;99.90
46898;DHT22;32646;50.958;6.258;2023-02-28T06:03:27;-2.50;99.90
46898;DHT22;32646;50.958;6.258;2023-02-28T06:05:54;-2.40;99.90
46898;DHT22;32646;50.958;6.258;2023-02-28T06:08:20;-2.40;99.90
46898;DHT22;32646;50.958;6.258;2023-02-28T06:10:47;-2.40;99.90
46898;DHT22;32646;50.958;6.258;2023-02-28T06:13:13;-2.40;99.90
46898;DHT22;32646;50.958;6.258;2023-02-28T06:15:40;-2.30;99.90
46898;DHT22;32646;50.958;6.258;2023-02-28T06:18:06;-2.20;99.90
46898;DHT22;32646;50.958;6.258;2023-02-28T06:20:33;-2.20;99.90
46898;DHT22;32646;50.958;6.258;2023-02-28T06:23:00;-2.10;99.90
46898;DHT22;32646;50.958;6.258;2023-02-28T06:25:27;-2.10;99.90
46898;DHT22;32646;50.958;6.258;2023-02-28T06:27:54;-2.20;99.90
46898;DHT22;32646;50.958;6.258;2023-02-28T06:30:21;-2.30;99.90
46898;DHT22;32646;50.958;6.258;2023-02-28T06:32:48;-2.30;99.90
46898;DHT22;32646;50.958;6.258;2023-02-28T06:35:15;-2.20;99.90
46898;DHT22;32646;50.958;6.258;2023-02-28T06:37:41;-2.30;99.90
46898;DHT22;32646;50.958;6.258;2023-02-28T06:40:09;-2.30;99.90
46898;DHT22;32646;50.958;6.258;2023-02-28T06:42:36;-2.30;99.90
46898;DHT22;32646;50.958;6.258;2023-02-28T06:45:02;-2.30;99.90
46898;DHT22;32646;50.958;6.258;2023-02-28T06:47:31;-2.30;99.90
46898;DHT22;32646;50.958;6.258;2023-02-28T06:49:57;-2.20;99.90
46898;DHT22;32646;50.958;6.258;2023-02-28T06:52:24;-2.20;99.90
46898;DHT22;32646;50.958;6.258;2023-02-28T06:54:50;-2.10;99.90
46898;DHT22;32646;50.958;6.258;2023-02-28T06:57:17;-2.00;99.90
46898;DHT22;32646;50.958;6.258;2023-02-28T06:59:43;-2.00;99.90
46898;DHT22;32646;50.958;6.258;2023-02-28T07:02:10;-2.00;99.90
46898;DHT22;32646;50.958;6.258;2023-02-28T07:04:36;-2.10;99.90
46898;DHT22;32646;50.958;6.258;2023-02-28T07:07:03;-2.00;99.90
46898;DHT22;32646;50.958;6.258;2023-02-28T07:09:30;-1.90;99.90
46898;DHT22;32646;50.958;6.258;2023-02-28T07:11:56;-1.80;99.90
46898;DHT22;32646;50.958;6.258;2023-02-28T07:14:23;-1.60;99.90
46898;DHT22;32646;50.958;6.258;2023-02-28T07:16:49;-1.50;99.90
46898;DHT22;32646;50.958;6.258;2023-02-28T07:19:16;-1.40;99.90
46898;DHT22;32646;50.958;6.258;2023-02-28T07:21:43;-1.30;99.90
46898;DHT22;32646;50.958;6.258;2023-02-28T07:24:09;-1.10;99.90
46898;DHT22;32646;50.958;6.258;2023-02-28T07:26:36;-0.80;99.90
46898;DHT22;32646;50.958;6.258;2023-02-28T07:29:02;-0.30;99.90
46898;DHT22;32646;50.958;6.258;2023-02-28T07:31:29;0.60;99.90
46898;DHT22;32646;50.958;6.258;2023-02-28T07:33:56;1.40;99.90
46898;DHT22;32646;50.958;6.258;2023-02-28T07:36:22;1.80;99.90
46898;DHT22;32646;50.958;6.258;2023-02-28T07:38:49;2.30;99.90
46898;DHT22;32646;50.958;6.258;2023-02-28T07:41:17;2.70;99.20
46898;DHT22;32646;50.958;6.258;2023-02-28T07:43:45;2.70;98.00
46898;DHT22;32646;50.958;6.258;2023-02-28T07:46:14;3.00;97.90
46898;DHT22;32646;50.958;6.258;2023-02-28T07:48:42;3.00;97.00
46898;DHT22;32646;50.958;6.258;2023-02-28T07:51:08;3.10;95.40
46898;DHT22;32646;50.958;6.258;2023-02-28T07:53:35;3.30;95.90
46898;DHT22;32646;50.958;6.258;2023-02-28T07:56:02;3.40;95.30
46898;DHT22;32646;50.958;6.258;2023-02-28T07:58:30;3.50;95.10
46898;DHT22;32646;50.958;6.258;2023-02-28T08:00:57;3.20;95.00
46898;DHT22;32646;50.958;6.258;2023-02-28T08:03:24;3.20;95.00
46898;DHT22;32646;50.958;6.258;2023-02-28T08:05:50;3.20;95.90
46898;DHT22;32646;50.958;6.258;2023-02-28T08:08:17;3.20;95.20
46898;DHT22;32646;50.958;6.258;2023-02-28T08:10:44;3.60;95.40
46898;DHT22;32646;50.958;6.258;2023-02-28T08:13:10;3.80;93.70
46898;DHT22;32646;50.958;6.258;2023-02-28T08:15:37;3.60;92.90
46898;DHT22;32646;50.958;6.258;2023-02-28T08:18:03;3.70;93.50
46898;DHT22;32646;50.958;6.258;2023-02-28T08:20:30;4.30;92.50
46898;DHT22;32646;50.958;6.258;2023-02-28T08:22:57;4.50;91.30
46898;DHT22;32646;50.958;6.258;2023-02-28T08:25:23;4.50;91.10
46898;DHT22;32646;50.958;6.258;2023-02-28T08:27:51;4.50;91.00
46898;DHT22;32646;50.958;6.258;2023-02-28T08:30:18;4.60;89.50
46898;DHT22;32646;50.958;6.258;2023-02-28T08:32:45;4.90;89.00
46898;DHT22;32646;50.958;6.258;2023-02-28T08:35:12;4.90;88.80
46898;DHT22;32646;50.958;6.258;2023-02-28T08:37:38;4.80;85.80
46898;DHT22;32646;50.958;6.258;2023-02-28T08:40:05;4.70;87.90
46898;DHT22;32646;50.958;6.258;2023-02-28T08:42:32;5.00;85.00
46898;DHT22;32646;50.958;6.258;2023-02-28T08:44:59;5.30;86.20
46898;DHT22;32646;50.958;6.258;2023-02-28T08:47:25;5.60;85.90
46898;DHT22;32646;50.958;6.258;2023-02-28T08:49:52;5.80;81.80
46898;DHT22;32646;50.958;6.258;2023-02-28T08:52:18;5.60;80.50
46898;DHT22;32646;50.958;6.258;2023-02-28T08:54:45;5.80;81.50
46898;DHT22;32646;50.958;6.258;2023-02-28T08:57:11;5.70;80.70
46898;DHT22;32646;50.958;6.258;2023-02-28T08:59:38;6.00;79.60
46898;DHT22;32646;50.958;6.258;2023-02-28T09:02:05;5.50;76.00
46898;DHT22;32646;50.958;6.258;2023-02-28T09:04:31;5.30;76.60
46898;DHT22;32646;50.958;6.258;2023-02-28T09:06:59;5.30;79.10
46898;DHT22;32646;50.958;6.258;2023-02-28T09:09:26;5.70;75.40
46898;DHT22;32646;50.958;6.258;2023-02-28T09:11:52;5.90;74.90
46898;DHT22;32646;50.958;6.258;2023-02-28T09:14:21;5.80;72.10
46898;DHT22;32646;50.958;6.258;2023-02-28T09:16:48;5.50;75.10
46898;DHT22;32646;50.958;6.258;2023-02-28T09:19:14;5.40;71.30
46898;DHT22;32646;50.958;6.258;2023-02-28T09:21:41;5.50;73.10
46898;DHT22;32646;50.958;6.258;2023-02-28T09:24:07;5.70;71.70
46898;DHT22;32646;50.958;6.258;2023-02-28T09:26:34;5.50;70.40
46898;DHT22;32646;50.958;6.258;2023-02-28T09:29:17;5.20;69.60
46898;DHT22;32646;50.958;6.258;2023-02-28T09:31:43;5.10;73.20
46898;DHT22;32646;50.958;6.258;2023-02-28T09:34:10;5.30;71.30
46898;DHT22;32646;50.958;6.258;2023-02-28T09:36:37;5.20;68.90
46898;DHT22;32646;50.958;6.258;2023-02-28T09:39:12;5.20;68.70
46898;DHT22;32646;50.958;6.258;2023-02-28T09:41:41;5.00;69.00
46898;DHT22;32646;50.958;6.258;2023-02-28T09:44:12;5.40;67.70
46898;DHT22;32646;50.958;6.258;2023-02-28T09:46:45;5.90;68.70
46898;DHT22;32646;50.958;6.258;2023-02-28T09:49:23;6.20;68.60
46898;DHT22;32646;50.958;6.258;2023-02-28T09:52:48;6.00;67.60
46898;DHT22;32646;50.958;6.258;2023-02-28T09:54:55;6.00;67.80
46898;DHT22;32646;50.958;6.258;2023-02-28T09:57:33;5.60;65.30
46898;DHT22;32646;50.958;6.258;2023-02-28T10:05:38;6.30;64.80
46898;DHT22;32646;50.958;6.258;2023-02-28T10:10:44;6.40;66.70
46898;DHT22;32646;50.958;6.258;2023-02-28T10:13:40;6.50;64.70
46898;DHT22;32646;50.958;6.258;2023-02-28T10:16:32;6.40;64.20
46898;DHT22;32646;50.958;6.258;2023-02-28T10:21:37;4.30;64.90
46898;DHT22;32646;50.958;6.258;2023-02-28T10:24:20;4.00;68.30
46898;DHT22;32646;50.958;6.258;2023-02-28T10:26:50;5.00;68.10
46898;DHT22;32646;50.958;6.258;2023-02-28T10:29:18;5.60;65.30
46898;DHT22;32646;50.958;6.258;2023-02-28T10:31:45;5.50;65.00
46898;DHT22;32646;50.958;6.258;2023-02-28T10:34:12;5.00;62.90
46898;DHT22;32646;50.958;6.258;2023-02-28T10:36:40;4.70;64.20
46898;DHT22;32646;50.958;6.258;2023-02-28T10:39:44;5.10;66.60
46898;DHT22;32646;50.958;6.258;2023-02-28T10:42:26;5.00;67.00
46898;DHT22;32646;50.958;6.258;2023-02-28T10:45:06;4.40;66.20
46898;DHT22;32646;50.958;6.258;2023-02-28T10:47:35;5.50;66.20
46898;DHT22;32646;50.958;6.258;2023-02-28T10:50:04;5.70;64.10
46898;DHT22;32646;50.958;6.258;2023-02-28T10:52:39;6.10;63.30
46898;DHT22;32646;50.958;6.258;2023-02-28T10:55:22;6.40;63.60
46898;DHT22;32646;50.958;6.258;2023-02-28T10:57:49;6.70;63.80
46898;DHT22;32646;50.958;6.258;2023-02-28T11:00:23;6.60;62.20
46898;DHT22;32646;50.958;6.258;2023-02-28T11:02:50;6.40;62.30
46898;DHT22;32646;50.958;6.258;2023-02-28T11:05:30;6.60;63.30
46898;DHT22;32646;50.958;6.258;2023-02-28T11:08:33;7.00;62.30
46898;DHT22;32646;50.958;6.258;2023-02-28T11:11:03;6.70;62.10
46898;DHT22;32646;50.958;6.258;2023-02-28T11:13:35;7.10;65.00
46898;DHT22;32646;50.958;6.258;2023-02-28T11:16:05;7.40;63.60
46898;DHT22;32646;50.958;6.258;2023-02-28T11:21:22;7.10;63.20
46898;DHT22;32646;50.958;6.258;2023-02-28T11:23:51;7.70;61.90
46898;DHT22;32646;50.958;6.258;2023-02-28T11:26:36;8.10;60.70
46898;DHT22;32646;50.958;6.258;2023-02-28T11:29:16;8.00;62.40
46898;DHT22;32646;50.958;6.258;2023-02-28T11:31:43;7.90;61.40
46898;DHT22;32646;50.958;6.258;2023-02-28T11:34:26;7.10;63.30
46898;DHT22;32646;50.958;6.258;2023-02-28T11:36:55;7.40;61.70
46898;DHT22;32646;50.958;6.258;2023-02-28T11:39:23;7.40;63.00
46898;DHT22;32646;50.958;6.258;2023-02-28T11:44:55;7.80;60.60
46898;DHT22;32646;50.958;6.258;2023-02-28T11:47:38;8.00;62.40
46898;DHT22;32646;50.958;6.258;2023-02-28T11:53:17;7.90;62.50
46898;DHT22;32646;50.958;6.258;2023-02-28T11:55:54;8.20;63.80
46898;DHT22;32646;50.958;6.258;2023-02-28T11:58:41;8.20;62.50
46898;DHT22;32646;50.958;6.258;2023-02-28T12:10:14;9.20;60.80
46898;DHT22;32646;50.958;6.258;2023-02-28T12:12:47;8.20;61.80
46898;DHT22;32646;50.958;6.258;2023-02-28T12:18:16;7.90;61.60
46898;DHT22;32646;50.958;6.258;2023-02-28T12:21:07;7.40;64.00
46898;DHT22;32646;50.958;6.258;2023-02-28T12:26:27;6.90;65.10
46898;DHT22;32646;50.958;6.258;2023-02-28T12:29:04;7.30;65.40
46898;DHT22;32646;50.958;6.258;2023-02-28T12:31:35;7.40;64.80
46898;DHT22;32646;50.958;6.258;2023-02-28T12:34:25;7.00;66.30
46898;DHT22;32646;50.958;6.258;2023-02-28T12:36:56;6.20;68.80
46898;DHT22;32646;50.958;6.258;2023-02-28T12:39:41;6.40;66.50
46898;DHT22;32646;50.958;6.258;2023-02-28T12:42:46;7.20;68.80
46898;DHT22;32646;50.958;6.258;2023-02-28T12:45:27;7.70;64.90
46898;DHT22;32646;50.958;6.258;2023-02-28T12:48:00;7.20;65.30
46898;DHT22;32646;50.958;6.258;2023-02-28T12:50:29;7.40;65.60
46898;DHT22;32646;50.958;6.258;2023-02-28T12:58:39;7.60;65.20
46898;DHT22;32646;50.958;6.258;2023-02-28T13:06:20;7.70;64.30
46898;DHT22;32646;50.958;6.258;2023-02-28T13:09:11;7.20;65.40
46898;DHT22;32646;50.958;6.258;2023-02-28T13:11:42;7.50;65.40
46898;DHT22;32646;50.958;6.258;2023-02-28T13:14:37;7.60;65.50
46898;DHT22;32646;50.958;6.258;2023-02-28T13:17:11;7.90;64.80
46898;DHT22;32646;50.958;6.258;2023-02-28T13:19:44;8.20;65.40
46898;DHT22;32646;50.958;6.258;2023-02-28T13:22:38;8.30;64.40
46898;DHT22;32646;50.958;6.258;2023-02-28T13:28:13;7.90;65.10
46898;DHT22;32646;50.958;6.258;2023-02-28T13:31:03;6.80;65.10
46898;DHT22;32646;50.958;6.258;2023-02-28T13:33:36;7.50;65.00
46898;DHT22;32646;50.958;6.258;2023-02-28T13:38:46;7.70;66.40
46898;DHT22;32646;50.958;6.258;2023-02-28T13:44:11;7.50;65.00
46898;DHT22;32646;50.958;6.258;2023-02-28T14:03:35;9.10;64.40
46898;DHT22;32646;50.958;6.258;2023-02-28T14:11:38;9.30;61.10
46898;DHT22;32646;50.958;6.258;2023-02-28T14:14:08;9.50;60.00
46898;DHT22;32646;50.958;6.258;2023-02-28T14:16:40;9.30;61.40
46898;DHT22;32646;50.958;6.258;2023-02-28T14:21:58;8.20;62.80
46898;DHT22;32646;50.958;6.258;2023-02-28T14:27:36;8.10;62.30
46898;DHT22;32646;50.958;6.258;2023-02-28T14:32:47;8.20;62.00
46898;DHT22;32646;50.958;6.258;2023-02-28T14:35:27;8.30;62.50
46898;DHT22;32646;50.958;6.258;2023-02-28T14:37:55;7.90;63.90
46898;DHT22;32646;50.958;6.258;2023-02-28T14:40:30;8.20;62.30
46898;DHT22;32646;50.958;6.258;2023-02-28T14:43:00;8.10;63.20
46898;DHT22;32646;50.958;6.258;2023-02-28T14:45:30;8.10;63.10
46898;DHT22;32646;50.958;6.258;2023-02-28T14:47:58;7.70;62.40
46898;DHT22;32646;50.958;6.258;2023-02-28T14:50:34;8.20;62.60
46898;DHT22;32646;50.958;6.258;2023-02-28T14:53:01;8.40;62.00
46898;DHT22;32646;50.958;6.258;2023-02-28T14:55:30;8.20;60.60
46898;DHT22;32646;50.958;6.258;2023-02-28T14:58:00;8.50;61.70
46898;DHT22;32646;50.958;6.258;2023-02-28T15:00:29;8.40;61.50
46898;DHT22;32646;50.958;6.258;2023-02-28T15:02:57;8.50;64.10
46898;DHT22;32646;50.958;6.258;2023-02-28T15:05:32;8.80;61.90
46898;DHT22;32646;50.958;6.258;2023-02-28T15:10:29;8.70;63.10
46898;DHT22;32646;50.958;6.258;2023-02-28T15:12:58;8.40;61.70
46898;DHT22;32646;50.958;6.258;2023-02-28T15:18:38;8.30;63.60
46898;DHT22;32646;50.958;6.258;2023-02-28T15:21:23;7.90;63.50
46898;DHT22;32646;50.958;6.258;2023-02-28T15:23:56;7.70;64.50
46898;DHT22;32646;50.958;6.258;2023-02-28T15:26:29;7.20;64.20
46898;DHT22;32646;50.958;6.258;2023-02-28T15:29:11;7.10;65.20
46898;DHT22;32646;50.958;6.258;2023-02-28T15:31:44;7.20;64.60
46898;DHT22;32646;50.958;6.258;2023-02-28T15:34:42;6.70;65.00
46898;DHT22;32646;50.958;6.258;2023-02-28T15:37:30;6.70;65.50
46898;DHT22;32646;50.958;6.258;2023-02-28T15:45:48;6.30;67.50
46898;DHT22;32646;50.958;6.258;2023-02-28T15:48:19;6.40;68.20
46898;DHT22;32646;50.958;6.258;2023-02-28T15:51:07;6.30;66.90
46898;DHT22;32646;50.958;6.258;2023-02-28T15:53:39;5.80;67.40
46898;DHT22;32646;50.958;6.258;2023-02-28T15:56:28;5.90;68.00
46898;DHT22;32646;50.958;6.258;2023-02-28T15:58:57;5.90;68.00
46898;DHT22;32646;50.958;6.258;2023-02-28T16:01:27;5.70;67.50
46898;DHT22;32646;50.958;6.258;2023-02-28T16:03:57;5.50;68.00
46898;DHT22;32646;50.958;6.258;2023-02-28T16:06:35;5.40;69.60
46898;DHT22;32646;50.958;6.258;2023-02-28T16:09:03;5.40;69.80
46898;DHT22;32646;50.958;6.258;2023-02-28T16:11:39;5.40;71.30
46898;DHT22;32646;50.958;6.258;2023-02-28T16:14:09;5.50;71.80
46898;DHT22;32646;50.958;6.258;2023-02-28T16:16:42;5.30;71.70
46898;DHT22;32646;50.958;6.258;2023-02-28T16:19:09;5.30;73.20
46898;DHT22;32646;50.958;6.258;2023-02-28T16:21:36;5.20;72.50
46898;DHT22;32646;50.958;6.258;2023-02-28T16:24:02;5.20;72.50
46898;DHT22;32646;50.958;6.258;2023-02-28T16:26:29;5.20;73.80
46898;DHT22;32646;50.958;6.258;2023-02-28T16:28:55;5.10;74.30
46898;DHT22;32646;50.958;6.258;2023-02-28T16:31:22;5.00;73.80
46898;DHT22;32646;50.958;6.258;2023-02-28T16:33:49;5.00;74.10
46898;DHT22;32646;50.958;6.258;2023-02-28T16:36:18;5.00;75.00
46898;DHT22;32646;50.958;6.258;2023-02-28T16:38:45;4.80;76.40
46898;DHT22;32646;50.958;6.258;2023-02-28T16:41:20;4.80;76.60
46898;DHT22;32646;50.958;6.258;2023-02-28T16:43:48;4.70;78.10
46898;DHT22;32646;50.958;6.258;2023-02-28T16:46:16;4.50;78.70
46898;DHT22;32646;50.958;6.258;2023-02-28T16:48:43;4.50;78.40
46898;DHT22;32646;50.958;6.258;2023-02-28T16:51:14;4.40;79.30
46898;DHT22;32646;50.958;6.258;2023-02-28T16:53:42;4.30;79.80
46898;DHT22;32646;50.958;6.258;2023-02-28T16:56:18;4.10;80.80
46898;DHT22;32646;50.958;6.258;2023-02-28T16:58:46;4.20;81.20
46898;DHT22;32646;50.958;6.258;2023-02-28T17:01:14;4.10;80.70
46898;DHT22;32646;50.958;6.258;2023-02-28T17:03:41;4.10;81.90
46898;DHT22;32646;50.958;6.258;2023-02-28T17:06:20;4.00;81.80
46898;DHT22;32646;50.958;6.258;2023-02-28T17:08:50;3.90;82.80
46898;DHT22;32646;50.958;6.258;2023-02-28T17:11:18;3.90;83.20
46898;DHT22;32646;50.958;6.258;2023-02-28T17:13:45;3.90;82.50
46898;DHT22;32646;50.958;6.258;2023-02-28T17:18:46;3.60;84.00
46898;DHT22;32646;50.958;6.258;2023-02-28T17:21:15;3.50;85.00
46898;DHT22;32646;50.958;6.258;2023-02-28T17:23:42;3.50;85.70
46898;DHT22;32646;50.958;6.258;2023-02-28T17:26:13;3.30;86.40
46898;DHT22;32646;50.958;6.258;2023-02-28T17:28:39;3.30;86.80
46898;DHT22;32646;50.958;6.258;2023-02-28T17:31:07;3.30;87.50
46898;DHT22;32646;50.958;6.258;2023-02-28T17:33:34;3.20;87.80
46898;DHT22;32646;50.958;6.258;2023-02-28T17:36:00;3.40;87.50
46898;DHT22;32646;50.958;6.258;2023-02-28T17:38:27;3.30;88.70
46898;DHT22;32646;50.958;6.258;2023-02-28T17:40:54;3.30;88.70
46898;DHT22;32646;50.958;6.258;2023-02-28T17:43:20;3.30;88.80
46898;DHT22;32646;50.958;6.258;2023-02-28T17:45:48;3.20;89.60
46898;DHT22;32646;50.958;6.258;2023-02-28T17:48:14;3.10;90.00
46898;DHT22;32646;50.958;6.258;2023-02-28T17:50:41;2.90;90.50
46898;DHT22;32646;50.958;6.258;2023-02-28T17:53:07;2.80;91.10
46898;DHT22;32646;50.958;6.258;2023-02-28T17:55:35;2.80;90.90
46898;DHT22;32646;50.958;6.258;2023-02-28T17:58:02;2.80;91.30
46898;DHT22;32646;50.958;6.258;2023-02-28T18:00:29;2.70;91.90